Monkey Run, Arkansas
Current Conditions -  °F | °C
As of 4:53 PM on Wednesday 17 Dec 2014 (Local Time) from KBPK Reporting Station
Light Rain Light Rain  
Wind Chill: 34°   Ceiling: 7500
Heat Index: 34°   Visibility: 7mi
Dew Point: 32°   Wind: 0mph
Humidity: 92%   Direction: NA
Pressure: 30.23"   Gusts: NA
Location:  36.3299°N, 92.4805°W
Report Text: KBPK 172253Z AUTO 00000KT 7SM -RA OVC075 01/00 A3023 RMK AO2 SLP244 P0001 T00110000
Loading
Personal Weather Stations






























Interactive Weather Map New forecast layout! Learn more

10-Day Weather Forecast

Advertisements
Track Severe Weather on mobile